West Lowville, New York
Current Conditions -  °F | °C
As of 1:58 PM on Tuesday 27 Jan 2015 (Local Time) from KGTB Reporting Station
Clear Clear  
Wind Chill: -10°   Ceiling: Unl
Heat Index: 10°   Visibility: 10mi
Dew Point: -4°   Wind: 23mph
Humidity: 53%   Direction: 40°NE
Pressure: 29.95"   Gusts: NA
Location:  43.7565°N, 75.5938°W
Report Text: KGTB 271858Z AUTO 04020KT 10SM CLR M12/M20 A2995 RMK AO2 SLP159 T11211200
Loading
Personal Weather Stations






























Interactive Weather Map New forecast layout! Learn more

10-Day Weather Forecast

Advertisements
Track Severe Weather on mobile